Etusivu
METAR-TAF:

METAR-TAF

Lentoasemat :

Pamplona, Espanja

Leveyspiiri: 42-46N, Pituuspiiri: 001-38W, korkeus merenpinnasta: 459 m

Tämänhetkinen sää

Tämä raportti tehtiin 17 minuuttia sitten, kello 19.30 UTC
Tuuli 9 kn etelästä
Lämpötila 10°C
Kosteus 71%
Ilmanpaine 1012 hPa
Näkyvyys 10 km tai enemmän
ei pilviä alle 1500 m:ssä eikä cumulonimbus-pilviä

METAR: LEPP 211930Z 17009KT CAVOK 10/05 Q1012

Aika: 20:47 (19:47 UTC)

Sääennuste

Tämä raportti tehtiin 5 tuntia ja 47 minuuttia sitten, kello 14.00 UTC
Ennuste voimassa 21. päivästä klo 15 UTC - 22. päivään klo 15 UTC
Tuuli 6 kn etelästä
Näkyvyys 10 km tai enemmän
Hajanaisia pilviä 5000 ft:n korkeudessa
Todennäköisyys 30% :
Ajoittain
22. päivästä klo 11 UTC - 22. päivään klo 15 UTC
Hajanaisia pilviä 3000 ft:n korkeudessa, Kasvava cumulus-pilvi.

TAF: LEPP 211400Z 2115/2215 18006KT 9999 SCT050 TX13/2214Z TN03/2206Z PROB30 TEMPO 2211/2215 SCT030TCU

Säähavainnot ja -ennusteet yli 4000 lentoasemalta (METAR- ja TAF-raportit).

Käytössä olevat sääasemat on merkitty karttaan keltaisilla ja punaisilla pisteillä.

Aseta hiiri pisteen päälle nähdäksesi sääaseman nimen.

Klikkaa sitten nähdäksesi säähavainnot ja -ennusteet.

Kartan vaihtaminen: klikkaa mustalla rastilla varustettuja vihreitä pisteitä, niin voit zoomata sisään; viivalla varustettua vihreää pistettä, niin voit zoomata ulos tai vihreitä nuolia, niin pääset viereisille kartoille.


METAR-TAF: